Terminal Aerodrome Forecast
Issued by NWS

Home | Current Version | Previous Version | Text Only | Print | Product List | Glossary On
Versions: 1 2 3 4 5 6 7 8 9 10 11 12 13 14 15 16 17
000
FTUS46 KSEW 300520
TAFPAE
TAF
KPAE 300520Z 3006/3106 02004KT P6SM FEW250
     FM301800 33005KT P6SM SCT250
     FM310500 02004KT P6SM SCT250=

USA.gov is the U.S. government's official web portal to all federal, state and local government web resources and services.